Dubuisson, Canada
Current Conditions -  °F | °C
As of 6:00 PM on Friday 19 Dec 2014 (Local Time) from CYVO Reporting Station
Clear Clear  
Wind Chill:   Ceiling: Unl
Heat Index:   Visibility: 15mi
Dew Point: -4°   Wind: 0mph
Humidity: 85%   Direction: NA
Pressure: 30.24"   Gusts: NA
Location:  48.1°N, 77.9°W
Report Text: CYVO 192300Z 00000KT 15SM SKC M18/M20 A3024 RMK SLP278
Loading
Personal Weather Stations






























Interactive Weather Map New forecast layout! Learn more

10-Day Weather Forecast

Advertisements
Track Severe Weather on mobile